Time;durP1;ratioP1;P1;durP2;ratioP2;P2;SDS_P1;SDS_P2;PMS_P1;PMS_P2;Temp;Humidity;BMP_temperature;BMP_pressure;BME280_temperature;BME280_humidity;BME280_pressure;Samples;Min_cycle;Max_cycle;Signal;HPM_P1;HPM_P2
2022/01/14 00:04:00;;;;;;;45.60;18.17;;;2.60;43.10;;;;;;10467612;28;20224;-67
2022/01/14 00:09:06;;;;;;;70.50;18.37;;;2.40;43.40;;;;;;10467786;28;20228;-68
2022/01/14 00:14:21;;;;;;;38.67;17.13;;;2.40;43.30;;;;;;10470049;28;20296;-68
2022/01/14 00:19:27;;;;;;;50.87;15.93;;;2.40;43.20;;;;;;10468972;28;20366;-68
2022/01/14 00:31:38;;;;;;;35.57;16.93;;;2.40;43.20;;;;;;10470145;28;20224;-68
2022/01/14 00:35:15;;;;;;;34.97;16.60;;;2.30;43.50;;;;;;10464883;28;20232;-68
2022/01/14 00:40:20;;;;;;;29.97;14.50;;;2.30;43.40;;;;;;10467675;28;20220;-68
2022/01/14 00:45:24;;;;;;;27.80;13.27;;;2.40;43.40;;;;;;10466742;28;20243;-68
2022/01/14 00:50:27;;;;;;;31.23;12.40;;;2.30;43.10;;;;;;10465259;28;20603;-68
2022/01/14 00:55:45;;;;;;;37.17;13.53;;;2.30;43.20;;;;;;10466267;28;20229;-68
2022/01/14 01:00:48;;;;;;;20.63;12.87;;;2.20;43.30;;;;;;10462666;28;20230;-68
2022/01/14 01:05:52;;;;;;;39.63;13.70;;;2.20;43.40;;;;;;10467255;28;20629;-69
2022/01/14 01:10:56;;;;;;;17.90;12.07;;;2.20;43.20;;;;;;10464126;28;20291;-68
2022/01/14 01:16:00;;;;;;;22.53;14.60;;;2.20;43.30;;;;;;10465942;28;20217;-68
2022/01/14 01:21:03;;;;;;;18.87;13.40;;;2.10;43.40;;;;;;10470190;28;20235;-68
2022/01/14 01:26:13;;;;;;;26.67;13.03;;;2.10;43.40;;;;;;10461532;28;20232;-68
2022/01/14 01:36:33;;;;;;;20.10;14.10;;;2.20;43.30;;;;;;10464820;28;20219;-69
2022/01/14 01:41:41;;;;;;;22.37;15.00;;;2.20;43.30;;;;;;10463774;28;20264;-69
2022/01/14 01:46:47;;;;;;;24.00;15.43;;;2.20;43.80;;;;;;10464236;28;20235;-69
2022/01/14 01:51:52;;;;;;;22.37;14.57;;;2.30;43.90;;;;;;10465851;28;20238;-69
2022/01/14 01:56:57;;;;;;;25.27;15.47;;;2.40;43.80;;;;;;10463312;28;20220;-69
2022/01/14 02:02:02;;;;;;;20.37;14.33;;;2.40;43.60;;;;;;10463452;28;20234;-69
2022/01/14 02:07:05;;;;;;;24.17;15.43;;;2.40;43.60;;;;;;10468355;28;20224;-69
2022/01/14 02:12:11;;;;;;;27.83;16.43;;;2.50;43.70;;;;;;10466012;28;20236;-70
2022/01/14 02:17:31;;;;;;;23.33;16.70;;;2.60;43.40;;;;;;10466159;28;21236;-70
2022/01/14 02:22:46;;;;;;;25.63;15.70;;;2.70;43.40;;;;;;10472188;28;20232;-69
2022/01/14 02:27:50;;;;;;;46.63;17.03;;;2.80;43.80;;;;;;10474801;28;20233;-69
2022/01/14 02:32:54;;;;;;;25.87;16.97;;;2.60;43.20;;;;;;10468204;28;20232;-70
2022/01/14 02:37:59;;;;;;;25.07;16.33;;;2.80;43.20;;;;;;10472706;28;20731;-69
2022/01/14 02:43:04;;;;;;;35.30;16.60;;;2.60;42.90;;;;;;10471066;28;20691;-70
2022/01/14 02:48:08;;;;;;;22.77;15.30;;;2.50;42.90;;;;;;10466542;28;20233;-70
2022/01/14 02:53:26;;;;;;;28.50;16.57;;;2.50;43.00;;;;;;10471354;28;20224;-70
2022/01/14 02:58:31;;;;;;;24.50;16.17;;;2.40;43.00;;;;;;10474669;28;20630;-70
2022/01/14 03:03:35;;;;;;;20.30;13.70;;;2.30;43.00;;;;;;10476502;28;21110;-69
2022/01/14 03:08:42;;;;;;;19.80;13.43;;;2.30;42.90;;;;;;10476958;28;20225;-70
2022/01/14 03:13:46;;;;;;;22.47;15.13;;;2.20;42.90;;;;;;10473069;28;20506;-69
2022/01/14 03:18:52;;;;;;;29.37;15.80;;;2.10;42.90;;;;;;10474312;28;20605;-69
2022/01/14 03:24:14;;;;;;;29.50;14.57;;;2.00;43.10;;;;;;10474780;28;20221;-69
2022/01/14 03:29:19;;;;;;;24.30;14.90;;;2.00;43.20;;;;;;10467262;28;20232;-69
2022/01/14 03:34:23;;;;;;;20.10;13.27;;;2.00;43.20;;;;;;10464902;28;20300;-70
2022/01/14 03:39:27;;;;;;;23.77;15.83;;;2.00;43.40;;;;;;10467191;28;20224;-69
2022/01/14 03:44:31;;;;;;;21.00;13.63;;;2.00;43.60;;;;;;10465270;28;20689;-69
2022/01/14 03:49:34;;;;;;;27.77;15.63;;;2.10;43.40;;;;;;10467962;28;20708;-69
2022/01/14 03:54:39;;;;;;;23.17;14.60;;;2.10;43.10;;;;;;10465548;28;20225;-70
2022/01/14 03:59:43;;;;;;;21.53;14.13;;;2.10;43.20;;;;;;10466712;28;20506;-70
2022/01/14 04:04:46;;;;;;;23.77;15.40;;;2.00;43.30;;;;;;10467852;28;20217;-69
2022/01/14 04:09:50;;;;;;;19.37;12.70;;;2.10;43.30;;;;;;10471216;28;20604;-69
2022/01/14 04:20:14;;;;;;;22.23;13.93;;;2.30;43.40;;;;;;10471084;28;20227;-69
2022/01/14 04:25:24;;;;;;;18.47;13.20;;;2.20;43.20;;;;;;10476161;28;20598;-69
2022/01/14 04:30:27;;;;;;;18.40;13.40;;;2.10;43.00;;;;;;10467966;28;20597;-69
2022/01/14 04:35:31;;;;;;;19.77;13.50;;;2.10;42.90;;;;;;10465071;28;20227;-69
2022/01/14 04:40:36;;;;;;;19.10;13.37;;;2.10;42.80;;;;;;10468083;28;20227;-69
2022/01/14 04:45:54;;;;;;;19.67;13.90;;;2.10;42.80;;;;;;10459754;28;20742;-70
2022/01/14 04:50:58;;;;;;;24.03;14.43;;;2.00;42.70;;;;;;10462801;28;20727;-70
2022/01/14 04:56:03;;;;;;;22.63;14.70;;;1.90;42.90;;;;;;10469880;28;20590;-69
2022/01/14 05:01:06;;;;;;;24.07;15.20;;;1.70;43.20;;;;;;10466160;28;20220;-69
2022/01/14 05:06:09;;;;;;;20.70;14.37;;;1.70;43.20;;;;;;10473939;28;20319;-70
2022/01/14 05:11:24;;;;;;;21.27;15.07;;;1.70;43.20;;;;;;10466757;28;20707;-69
2022/01/14 05:16:27;;;;;;;21.97;14.83;;;1.80;43.40;;;;;;10466862;28;20565;-70
2022/01/14 05:21:31;;;;;;;20.23;14.13;;;1.80;43.30;;;;;;10464353;28;20232;-69
2022/01/14 05:26:35;;;;;;;18.80;13.27;;;1.80;43.00;;;;;;10470351;28;20243;-70
2022/01/14 05:31:46;;;;;;;22.57;14.30;;;1.70;43.10;;;;;;10465992;28;20746;-69
2022/01/14 05:36:50;;;;;;;20.57;13.10;;;1.70;43.40;;;;;;10465261;28;20220;-69
2022/01/14 05:41:55;;;;;;;18.47;13.47;;;1.70;42.90;;;;;;10463555;28;20232;-70
2022/01/14 05:47:00;;;;;;;16.07;11.57;;;1.70;43.00;;;;;;10464862;28;20849;-69
2022/01/14 05:52:03;;;;;;;20.10;13.97;;;1.70;43.20;;;;;;10465656;28;20221;-69
2022/01/14 05:57:08;;;;;;;20.97;14.83;;;1.70;43.10;;;;;;10463808;28;20220;-70
2022/01/14 06:02:11;;;;;;;18.83;13.77;;;1.60;43.20;;;;;;10467943;28;20224;-69
2022/01/14 06:07:15;;;;;;;19.57;13.47;;;1.70;43.20;;;;;;10471458;28;20224;-70
2022/01/14 06:12:19;;;;;;;20.33;13.37;;;1.70;43.20;;;;;;10472200;28;20228;-69
2022/01/14 06:17:22;;;;;;;14.77;11.10;;;1.80;43.70;;;;;;10473577;28;20221;-69
2022/01/14 06:22:26;;;;;;;21.50;14.13;;;2.00;43.60;;;;;;10469256;28;20223;-70
2022/01/14 06:27:32;;;;;;;17.87;12.93;;;1.90;43.60;;;;;;10471335;28;20237;-70
2022/01/14 06:32:41;;;;;;;20.40;13.93;;;2.00;43.40;;;;;;10474937;28;20228;-70
2022/01/14 06:37:44;;;;;;;20.67;13.70;;;2.00;43.40;;;;;;10471227;28;20216;-70
2022/01/14 06:42:49;;;;;;;20.80;14.93;;;2.10;43.40;;;;;;10477004;28;20235;-69
2022/01/14 06:47:52;;;;;;;21.67;14.87;;;2.10;43.20;;;;;;10474953;28;20225;-70
2022/01/14 06:52:56;;;;;;;20.63;13.93;;;2.10;42.90;;;;;;10475886;28;20225;-69
2022/01/14 06:58:00;;;;;;;21.90;14.67;;;2.10;42.80;;;;;;10470600;28;20758;-69
2022/01/14 07:03:03;;;;;;;21.53;14.70;;;2.20;42.90;;;;;;10472580;28;20235;-69
2022/01/14 07:08:06;;;;;;;19.57;13.50;;;2.10;42.90;;;;;;10471734;28;20228;-69
2022/01/14 07:13:11;;;;;;;20.07;13.97;;;2.20;42.90;;;;;;10469120;28;20235;-69
2022/01/14 07:18:16;;;;;;;17.43;12.47;;;2.10;42.70;;;;;;10474166;28;20225;-69
2022/01/14 07:23:19;;;;;;;19.47;12.83;;;2.00;42.70;;;;;;10473688;28;20228;-69
2022/01/14 07:28:23;;;;;;;37.63;21.67;;;2.00;42.70;;;;;;10470189;28;20236;-69
2022/01/14 07:33:26;;;;;;;26.07;18.77;;;2.00;42.80;;;;;;10471965;28;20224;-70
2022/01/14 07:38:29;;;;;;;23.80;15.77;;;1.90;42.90;;;;;;10467360;28;20228;-70
2022/01/14 07:43:35;;;;;;;23.63;14.43;;;1.90;42.90;;;;;;10471173;28;20277;-70
2022/01/14 07:48:38;;;;;;;20.23;13.90;;;1.90;43.00;;;;;;10472455;28;20220;-70
2022/01/14 07:53:42;;;;;;;21.37;14.10;;;1.90;42.80;;;;;;10469331;28;20227;-70
2022/01/14 07:58:46;;;;;;;19.70;13.33;;;1.90;43.00;;;;;;10472527;28;20232;-69
2022/01/14 08:03:49;;;;;;;23.47;15.37;;;1.80;43.20;;;;;;10469491;28;20739;-70
2022/01/14 08:08:52;;;;;;;21.63;14.43;;;1.90;43.40;;;;;;10470545;28;20225;-72
2022/01/14 08:13:57;;;;;;;24.67;16.57;;;1.90;43.30;;;;;;10474567;28;20224;-69
2022/01/14 08:19:00;;;;;;;23.80;16.63;;;2.00;43.40;;;;;;10469362;28;20221;-70
2022/01/14 08:24:04;;;;;;;31.03;23.80;;;2.10;43.40;;;;;;10473888;28;20224;-70
2022/01/14 08:29:08;;;;;;;24.90;17.80;;;2.10;43.30;;;;;;10467365;28;20751;-69
2022/01/14 08:34:12;;;;;;;24.73;18.27;;;2.10;43.20;;;;;;10470943;28;20248;-70
2022/01/14 08:39:15;;;;;;;24.10;16.10;;;2.10;43.30;;;;;;10468854;28;20754;-70
2022/01/14 08:44:19;;;;;;;21.17;14.90;;;2.10;43.40;;;;;;10471353;28;20221;-70
2022/01/14 08:49:25;;;;;;;19.47;13.97;;;2.20;43.40;;;;;;10465023;28;20571;-70
2022/01/14 08:54:29;;;;;;;20.43;14.60;;;2.20;43.70;;;;;;10457483;28;21076;-70
2022/01/14 08:59:33;;;;;;;21.47;14.60;;;2.30;43.80;;;;;;10459935;28;20599;-70
2022/01/14 09:04:37;;;;;;;20.47;15.13;;;2.40;43.80;;;;;;10456001;28;20228;-70
2022/01/14 09:09:40;;;;;;;21.90;15.00;;;2.40;43.70;;;;;;10458503;28;20984;-71
2022/01/14 09:14:45;;;;;;;20.17;14.63;;;2.50;43.90;;;;;;10458838;28;20221;-70
2022/01/14 09:19:48;;;;;;;21.43;15.53;;;2.60;44.10;;;;;;10458574;28;20225;-70
2022/01/14 09:24:52;;;;;;;20.87;15.43;;;2.70;44.10;;;;;;10461488;28;20611;-70
2022/01/14 09:29:58;;;;;;;20.93;15.70;;;3.00;44.30;;;;;;10462637;28;20233;-70
2022/01/14 09:35:03;;;;;;;21.47;15.50;;;2.80;43.90;;;;;;10460517;28;20309;-70
2022/01/14 09:40:07;;;;;;;20.97;15.90;;;3.10;44.30;;;;;;10457516;28;20319;-71
2022/01/14 09:45:12;;;;;;;24.30;16.53;;;3.20;44.40;;;;;;10461153;28;20223;-71
2022/01/14 09:50:21;;;;;;;22.20;15.80;;;3.30;44.40;;;;;;10459195;28;20228;-70
2022/01/14 09:55:25;;;;;;;22.07;16.90;;;3.50;44.50;;;;;;10456701;28;20258;-70
2022/01/14 10:00:29;;;;;;;22.37;17.07;;;3.60;44.70;;;;;;10459807;28;20809;-69
2022/01/14 10:05:36;;;;;;;22.90;17.27;;;3.90;44.60;;;;;;10458243;28;20708;-69
2022/01/14 10:10:45;;;;;;;25.40;19.20;;;4.10;44.50;;;;;;10466933;28;20224;-69
2022/01/14 10:15:52;;;;;;;25.03;18.47;;;4.30;43.90;;;;;;10462163;28;20223;-67
2022/01/14 10:21:01;;;;;;;24.60;18.30;;;4.40;43.70;;;;;;10460421;28;20425;-69
2022/01/14 10:26:04;;;;;;;22.83;18.13;;;4.60;43.60;;;;;;10461912;28;20221;-69
2022/01/14 10:31:08;;;;;;;26.20;19.57;;;4.70;43.80;;;;;;10467649;28;20242;-70
2022/01/14 10:36:22;;;;;;;26.10;19.97;;;4.80;43.40;;;;;;10453346;28;20692;-69
2022/01/14 10:41:29;;;;;;;25.20;18.67;;;4.90;43.50;;;;;;10453446;28;20390;-67
2022/01/14 10:46:34;;;;;;;24.40;19.07;;;4.90;43.40;;;;;;10464812;28;20228;-69
2022/01/14 10:51:37;;;;;;;23.60;18.40;;;5.10;43.70;;;;;;10462426;28;20232;-69
2022/01/14 10:56:40;;;;;;;25.87;19.23;;;5.20;43.70;;;;;;10468367;28;20221;-70
2022/01/14 11:01:45;;;;;;;21.83;17.77;;;5.40;43.60;;;;;;10474164;28;20220;-70
2022/01/14 11:06:48;;;;;;;23.07;19.00;;;5.50;43.40;;;;;;10469559;28;20224;-70
2022/01/14 11:11:51;;;;;;;23.60;19.03;;;5.60;43.30;;;;;;10473518;28;20220;-70
2022/01/14 11:16:56;;;;;;;22.83;18.50;;;5.70;43.30;;;;;;10472007;28;20227;-71
2022/01/14 11:27:22;;;;;;;19.60;17.23;;;5.90;43.50;;;;;;10471073;28;20246;-71
2022/01/14 11:32:27;;;;;;;22.17;17.77;;;6.10;43.60;;;;;;10469477;28;20232;-70
2022/01/14 11:37:34;;;;;;;29.67;23.33;;;6.20;43.60;;;;;;10468347;28;20220;-70
2022/01/14 11:42:43;;;;;;;21.23;18.23;;;6.40;43.20;;;;;;10471876;28;20239;-70
2022/01/14 11:48:05;;;;;;;24.10;19.13;;;6.60;42.90;;;;;;10468999;28;20229;-70
2022/01/14 11:53:36;;;;;;;22.47;19.00;;;6.80;43.10;;;;;;10471567;28;23585;-70
2022/01/14 11:58:39;;;;;;;22.83;17.53;;;7.00;42.10;;;;;;10470749;28;20221;-70
2022/01/14 12:03:52;;;;;;;22.17;17.40;;;7.10;42.90;;;;;;10470121;28;20228;-70
2022/01/14 12:09:04;;;;;;;19.23;17.00;;;7.20;41.80;;;;;;10463661;28;20232;-72
2022/01/14 12:14:07;;;;;;;18.47;16.13;;;7.30;41.40;;;;;;10467210;28;20216;-71
2022/01/14 12:19:21;;;;;;;20.67;17.30;;;7.40;42.40;;;;;;10465532;28;20294;-71
2022/01/14 12:24:52;;;;;;;20.17;17.57;;;7.50;41.30;;;;;;10473471;28;20255;-71
2022/01/14 12:30:06;;;;;;;20.83;17.47;;;7.50;41.60;;;;;;10468406;28;20239;-70
2022/01/14 12:35:14;;;;;;;20.60;17.97;;;7.60;41.40;;;;;;10436733;28;20225;-71
2022/01/14 12:40:20;;;;;;;22.10;19.23;;;7.70;41.60;;;;;;10443166;28;20228;-71
2022/01/14 12:45:52;;;;;;;21.80;18.27;;;7.80;41.50;;;;;;10447546;28;20886;-68
2022/01/14 12:51:04;;;;;;;20.10;16.23;;;7.90;41.30;;;;;;10459682;28;20232;-69
2022/01/14 12:56:15;;;;;;;18.70;16.37;;;8.00;41.60;;;;;;10468646;28;20235;-69
2022/01/14 13:01:19;;;;;;;19.53;16.87;;;8.10;41.40;;;;;;10469936;28;20243;-68
2022/01/14 13:06:24;;;;;;;18.50;16.13;;;8.20;42.20;;;;;;10463267;28;20235;-68
2022/01/14 13:11:27;;;;;;;19.50;17.33;;;8.30;41.80;;;;;;10467415;28;20228;-67
2022/01/14 13:16:44;;;;;;;21.53;17.40;;;8.40;42.00;;;;;;10465320;28;20255;-68
2022/01/14 13:21:49;;;;;;;20.33;18.13;;;8.50;41.10;;;;;;10464775;28;20224;-68
2022/01/14 13:27:01;;;;;;;20.37;17.50;;;8.60;41.70;;;;;;10470361;28;20218;-68
2022/01/14 13:32:05;;;;;;;19.07;16.77;;;8.60;41.10;;;;;;10467187;28;20224;-68
2022/01/14 13:37:11;;;;;;;18.37;16.13;;;8.60;41.70;;;;;;10466657;28;20244;-70
2022/01/14 13:42:24;;;;;;;18.40;15.53;;;8.70;41.30;;;;;;10467669;28;20239;-70
2022/01/14 13:47:33;;;;;;;17.67;15.43;;;8.70;40.90;;;;;;10464708;28;20216;-70
2022/01/14 13:52:38;;;;;;;19.30;15.23;;;8.80;41.80;;;;;;10468400;28;20227;-69
2022/01/14 13:57:41;;;;;;;15.97;14.10;;;8.90;41.50;;;;;;10465997;28;20716;-69
2022/01/14 14:02:50;;;;;;;14.90;13.23;;;8.90;41.80;;;;;;10465364;28;20220;-68
2022/01/14 14:08:06;;;;;;;16.07;14.10;;;9.00;41.00;;;;;;10464150;28;20331;-68
2022/01/14 14:15:36;;;;;;;16.73;14.47;;;9.00;40.60;;;;;;10465531;28;20727;-70
2022/01/14 14:18:56;;;;;;;15.33;13.73;;;9.10;40.10;;;;;;10465692;28;20316;-70
2022/01/14 14:24:02;;;;;;;15.53;13.73;;;9.20;40.70;;;;;;10476608;28;20564;-69
2022/01/14 14:29:25;;;;;;;15.47;11.73;;;9.20;40.90;;;;;;10460483;28;20217;-69
2022/01/14 14:34:28;;;;;;;14.53;13.03;;;9.20;40.20;;;;;;10438199;28;20225;-70
2022/01/14 14:39:33;;;;;;;14.70;12.40;;;9.20;41.20;;;;;;10431165;28;20236;-70
2022/01/14 14:44:38;;;;;;;14.90;13.27;;;9.20;40.80;;;;;;10430673;28;20229;-70
2022/01/14 14:49:42;;;;;;;14.80;12.63;;;9.20;41.00;;;;;;10430645;28;20226;-70
2022/01/14 14:54:46;;;;;;;16.73;13.13;;;9.20;41.00;;;;;;10432191;28;20607;-70
2022/01/14 14:59:50;;;;;;;13.97;11.80;;;9.20;40.50;;;;;;10432043;28;20221;-70
2022/01/14 15:04:53;;;;;;;14.33;12.93;;;9.20;40.90;;;;;;10430514;28;20609;-70
2022/01/14 15:09:58;;;;;;;15.97;13.23;;;9.20;41.70;;;;;;10428831;28;20225;-70
2022/01/14 15:15:08;;;;;;;15.70;13.33;;;9.20;40.50;;;;;;10431043;28;20234;-70
2022/01/14 15:20:12;;;;;;;13.53;12.10;;;9.10;40.50;;;;;;10429360;28;20217;-70
2022/01/14 15:25:16;;;;;;;13.53;12.13;;;9.10;40.50;;;;;;10434361;28;20233;-70
2022/01/14 15:30:21;;;;;;;17.13;15.33;;;9.00;40.10;;;;;;10432146;28;20232;-70
2022/01/14 15:35:25;;;;;;;18.30;15.70;;;8.90;40.00;;;;;;10430947;28;20232;-70
2022/01/14 15:40:30;;;;;;;16.30;14.47;;;8.80;39.90;;;;;;10432895;28;20589;-70
2022/01/14 15:45:36;;;;;;;15.73;13.80;;;8.70;39.80;;;;;;10431599;28;20283;-70
2022/01/14 15:50:40;;;;;;;17.70;15.47;;;8.60;39.80;;;;;;10427769;28;20715;-70
2022/01/14 15:55:45;;;;;;;16.47;13.67;;;8.50;39.70;;;;;;10429040;28;20253;-70
2022/01/14 16:00:48;;;;;;;15.87;13.33;;;8.40;39.80;;;;;;10431816;28;20239;-70
2022/01/14 16:05:52;;;;;;;16.77;13.63;;;8.30;40.00;;;;;;10431849;28;20717;-70
2022/01/14 16:10:59;;;;;;;15.93;13.40;;;8.10;39.90;;;;;;10425008;28;20229;-70
2022/01/14 16:16:03;;;;;;;14.33;11.80;;;8.00;39.90;;;;;;10423335;28;20217;-70
2022/01/14 16:21:06;;;;;;;12.37;11.07;;;7.90;40.20;;;;;;10427678;28;20780;-70
2022/01/14 16:26:10;;;;;;;10.13;8.60;;;7.80;40.20;;;;;;10426979;28;20232;-70
2022/01/14 16:31:14;;;;;;;16.20;14.50;;;7.70;40.00;;;;;;10423649;28;20718;-70
2022/01/14 16:36:17;;;;;;;17.90;15.40;;;7.60;40.00;;;;;;10430709;28;20225;-70
2022/01/14 16:41:22;;;;;;;16.57;14.27;;;7.50;40.10;;;;;;10429499;28;20229;-70
2022/01/14 16:46:27;;;;;;;18.90;16.70;;;7.40;40.00;;;;;;10430571;28;20228;-71
2022/01/14 16:51:32;;;;;;;19.13;16.80;;;7.30;40.20;;;;;;10426841;28;20236;-71
2022/01/14 16:56:37;;;;;;;17.73;15.83;;;7.20;40.20;;;;;;10429742;28;20243;-70
2022/01/14 17:01:40;;;;;;;24.50;21.53;;;7.10;40.00;;;;;;10429868;28;20229;-70
2022/01/14 17:06:44;;;;;;;21.67;19.33;;;7.00;40.10;;;;;;10429622;28;20217;-70
2022/01/14 17:11:49;;;;;;;24.97;21.17;;;6.90;40.20;;;;;;10431115;28;20233;-70
2022/01/14 17:16:52;;;;;;;19.77;17.50;;;6.80;41.00;;;;;;10427648;28;20264;-70
2022/01/14 17:21:55;;;;;;;21.83;18.93;;;6.70;40.40;;;;;;10425766;28;20708;-71
2022/01/14 17:26:59;;;;;;;20.17;17.30;;;6.60;40.30;;;;;;10430107;28;20223;-70
2022/01/14 17:32:03;;;;;;;21.80;17.30;;;6.60;40.40;;;;;;10425862;28;20217;-70
2022/01/14 17:37:06;;;;;;;17.80;15.47;;;6.50;40.40;;;;;;10427681;28;20235;-70
2022/01/14 17:42:15;;;;;;;19.60;15.97;;;6.30;40.40;;;;;;10424417;28;20225;-70
2022/01/14 17:47:19;;;;;;;25.70;22.13;;;6.20;40.60;;;;;;10426173;28;20250;-70
2022/01/14 17:52:22;;;;;;;25.87;22.20;;;6.20;40.60;;;;;;10429788;28;20232;-70
2022/01/14 17:57:26;;;;;;;21.37;19.10;;;6.20;41.40;;;;;;10425190;28;20229;-71
2022/01/14 18:02:30;;;;;;;22.40;19.73;;;6.10;40.60;;;;;;10427672;28;20221;-71
2022/01/14 18:07:33;;;;;;;26.93;21.77;;;6.00;40.60;;;;;;10422404;28;20225;-71
2022/01/14 18:12:48;;;;;;;26.40;22.83;;;5.90;40.70;;;;;;10426929;28;20316;-71
2022/01/14 18:17:53;;;;;;;21.07;18.83;;;5.80;40.80;;;;;;10415914;28;20237;-71
2022/01/14 18:22:56;;;;;;;21.43;18.50;;;5.70;40.80;;;;;;10415560;28;20253;-71
2022/01/14 18:28:01;;;;;;;17.87;15.93;;;5.60;40.90;;;;;;10418232;28;20752;-71
2022/01/14 18:33:04;;;;;;;20.00;17.63;;;5.60;41.00;;;;;;10416537;28;20702;-71
2022/01/14 18:38:07;;;;;;;16.23;14.53;;;5.60;41.10;;;;;;10419681;28;20225;-71
2022/01/14 18:43:14;;;;;;;16.30;14.60;;;5.60;41.00;;;;;;10414693;28;20233;-71
2022/01/14 18:48:17;;;;;;;17.87;16.07;;;5.60;40.80;;;;;;10416371;28;20240;-72
2022/01/14 18:53:20;;;;;;;17.30;15.47;;;5.60;41.00;;;;;;10423751;28;20296;-72
2022/01/14 18:58:25;;;;;;;19.27;17.00;;;5.60;41.00;;;;;;10422169;28;20229;-73
2022/01/14 19:03:28;;;;;;;23.80;21.07;;;5.60;40.90;;;;;;10423369;28;20237;-73
2022/01/14 19:08:32;;;;;;;22.53;19.17;;;5.50;41.00;;;;;;10434672;28;20240;-73
2022/01/14 19:13:38;;;;;;;20.77;18.57;;;5.50;40.80;;;;;;10433477;28;20236;-73
2022/01/14 19:18:42;;;;;;;18.23;16.07;;;5.50;41.10;;;;;;10426585;28;20229;-73
2022/01/14 19:23:45;;;;;;;23.10;20.67;;;5.50;41.00;;;;;;10423340;28;20607;-71
2022/01/14 19:28:50;;;;;;;24.00;21.50;;;5.40;40.80;;;;;;10419188;28;20228;-70
2022/01/14 19:33:54;;;;;;;21.07;18.83;;;5.40;40.80;;;;;;10418985;28;20713;-70
2022/01/14 19:38:57;;;;;;;17.73;15.83;;;5.40;40.70;;;;;;10424704;28;20224;-71
2022/01/14 19:44:03;;;;;;;17.03;15.17;;;5.40;40.70;;;;;;10426102;28;20592;-70
2022/01/14 19:49:06;;;;;;;18.93;16.53;;;5.30;40.50;;;;;;10425268;28;20221;-70
2022/01/14 19:54:09;;;;;;;15.13;13.33;;;5.30;40.50;;;;;;10420580;28;20319;-70
2022/01/14 19:59:14;;;;;;;14.93;13.43;;;5.30;40.50;;;;;;10422703;28;20217;-70
2022/01/14 20:04:17;;;;;;;21.47;17.27;;;5.20;40.50;;;;;;10420886;28;20421;-70
2022/01/14 20:09:20;;;;;;;18.33;15.53;;;5.10;40.50;;;;;;10424148;28;20233;-70
2022/01/14 20:14:25;;;;;;;21.43;19.20;;;5.10;40.50;;;;;;10423673;28;20231;-70
2022/01/14 20:19:28;;;;;;;24.23;21.37;;;5.10;40.50;;;;;;10423312;28;20615;-70
2022/01/14 20:24:31;;;;;;;23.80;21.20;;;5.00;40.50;;;;;;10422425;28;20295;-70
2022/01/14 20:29:36;;;;;;;27.87;24.67;;;5.00;40.50;;;;;;10425776;28;21165;-70
2022/01/14 20:34:43;;;;;;;29.10;24.90;;;4.90;40.30;;;;;;10425794;28;20232;-70
2022/01/14 20:39:46;;;;;;;30.53;23.40;;;4.80;40.20;;;;;;10425488;28;20233;-70
2022/01/14 20:44:54;;;;;;;24.20;21.13;;;4.70;40.50;;;;;;10425934;28;20240;-70
2022/01/14 20:49:57;;;;;;;25.70;21.77;;;4.70;40.50;;;;;;10428039;28;20225;-71
2022/01/14 20:55:00;;;;;;;25.47;21.93;;;4.60;40.50;;;;;;10429138;28;20225;-71
2022/01/14 21:00:07;;;;;;;24.23;20.47;;;4.70;40.50;;;;;;10432570;28;20227;-70
2022/01/14 21:05:13;;;;;;;22.73;20.33;;;4.60;40.30;;;;;;10429070;28;20224;-70
2022/01/14 21:10:17;;;;;;;23.17;19.13;;;4.60;40.20;;;;;;10429719;28;20728;-70
2022/01/14 21:15:22;;;;;;;16.63;14.90;;;4.60;40.50;;;;;;10428745;28;20616;-70
2022/01/14 21:20:26;;;;;;;19.37;16.97;;;4.50;40.50;;;;;;10431673;28;20229;-70
2022/01/14 21:25:29;;;;;;;19.23;17.13;;;4.40;40.30;;;;;;10420770;28;20225;-70
2022/01/14 21:30:33;;;;;;;17.73;15.33;;;4.40;40.20;;;;;;10423140;28;20224;-70
2022/01/14 21:35:37;;;;;;;17.70;15.37;;;4.20;40.10;;;;;;10424475;28;20754;-70
2022/01/14 21:40:40;;;;;;;12.83;11.30;;;4.10;40.40;;;;;;10422244;28;20233;-70
2022/01/14 21:45:46;;;;;;;18.33;15.07;;;4.00;40.50;;;;;;10415410;28;20229;-70
2022/01/14 21:50:50;;;;;;;15.47;13.83;;;4.00;40.50;;;;;;10418432;28;20221;-70
2022/01/14 21:55:53;;;;;;;19.40;17.03;;;4.20;40.80;;;;;;10418915;28;20250;-70
2022/01/14 22:00:58;;;;;;;18.07;14.97;;;4.00;40.50;;;;;;10416999;28;20232;-70
2022/01/14 22:06:01;;;;;;;18.97;16.97;;;4.00;40.50;;;;;;10412710;28;20291;-70
2022/01/14 22:11:04;;;;;;;13.83;12.43;;;4.00;40.40;;;;;;10416652;28;20761;-70
2022/01/14 22:16:09;;;;;;;19.70;17.33;;;4.00;40.50;;;;;;10426534;28;20723;-70
2022/01/14 22:21:12;;;;;;;17.30;14.33;;;4.00;40.10;;;;;;10421770;28;20224;-70
2022/01/14 22:26:15;;;;;;;18.80;16.80;;;4.00;40.40;;;;;;10424911;28;20260;-69
2022/01/14 22:31:20;;;;;;;18.23;15.23;;;3.80;40.30;;;;;;10421250;28;20225;-70
2022/01/14 22:36:23;;;;;;;13.80;11.87;;;3.80;40.40;;;;;;10424482;28;20696;-70
2022/01/14 22:41:27;;;;;;;17.00;15.20;;;3.70;40.40;;;;;;10428280;28;20235;-71
2022/01/14 22:46:31;;;;;;;17.87;14.80;;;3.70;40.40;;;;;;10429542;28;20724;-70
2022/01/14 22:51:34;;;;;;;16.57;14.60;;;3.80;40.50;;;;;;10421838;28;20240;-70
2022/01/14 22:56:38;;;;;;;16.77;14.97;;;3.70;40.40;;;;;;10430528;28;20247;-70
2022/01/14 23:01:43;;;;;;;17.67;14.40;;;3.70;40.30;;;;;;10430084;28;20236;-70
2022/01/14 23:06:47;;;;;;;18.17;14.97;;;3.70;40.40;;;;;;10429441;28;20221;-70
2022/01/14 23:11:50;;;;;;;15.93;12.73;;;3.70;40.40;;;;;;10426620;28;20599;-70
2022/01/14 23:16:54;;;;;;;16.13;14.40;;;3.60;40.30;;;;;;10432754;28;20740;-70
2022/01/14 23:21:58;;;;;;;12.90;10.67;;;3.60;40.20;;;;;;10429442;28;20237;-70
2022/01/14 23:27:03;;;;;;;14.60;12.27;;;3.60;40.30;;;;;;10430910;28;20225;-70
2022/01/14 23:32:08;;;;;;;16.47;13.83;;;3.60;40.30;;;;;;10428278;28;20594;-70
2022/01/14 23:37:11;;;;;;;17.23;14.47;;;3.60;40.10;;;;;;10427058;28;20222;-70
2022/01/14 23:42:14;;;;;;;15.07;12.43;;;3.50;40.10;;;;;;10426334;28;20224;-70
2022/01/14 23:47:37;;;;;;;16.83;14.87;;;3.50;40.20;;;;;;10428215;28;20228;-70
2022/01/14 23:52:42;;;;;;;15.87;13.73;;;3.50;40.00;;;;;;10427851;28;20237;-70
2022/01/14 23:57:46;;;;;;;15.90;14.20;;;3.40;40.00;;;;;;10423426;28;20319;-70
